Terminal Aerodrome Forecast
Issued by NWS Charleston, SC

Home | Current Version | Previous Version | Text Only | Print | Product List | Glossary On
Versions: 1 2 3 4 5 6 7 8 9 10 11 12 13 14 15 16 17 18 19 20 21 22 23 24 25 26 27 28 29 30 31 32 33 34 35 36 37 38 39 40 41 42 43 44 45 46
174
FTUS42 KCHS 101734
TAFCHS
TAF
KCHS 101734Z 1018/1118 21014G21KT P6SM FEW030
     FM110000 18008KT P6SM FEW030 SCT200
     FM110600 26006KT P6SM VCSH SCT008 OVC015
     FM111100 34007KT P6SM OVC015
     FM111600 01012KT P6SM OVC030=

USA.gov is the U.S. government's official web portal to all federal, state and local government web resources and services.